Disclaimer

Please do not use the information listed here in-flight or in-navigation, as they are not provided to us by the airports but are provided by volunteers, so they might be outdated.

Search


Regions


Airport information page

No radio frequency information is available.

Airport informations:
Latitude: 19° 45' 54.00" S
Longitude: 047° 57' 53.20" W
Elevation: 2655 feet - 809 meters
Operating hours: 24 hour operations
Operating agency: Civil government, landing fees and diplomatic clearance may be required
Timezone: UTC-3(-2DT)
Fuel: Jet A1, without icing nhibitor.

100/130 octane gasoline, leaded, MIL-L-5572F (GREEN)

Runway information:
17/35 - 5771 x 148 feet< - >1759 x 45 meters

Recent METARs:
SBUR 210400Z 03007KT 2500 -RA BR BKN004 OVC090 20/20 Q1016
SBUR 210500Z 36006KT 2500 -RA BR BKN004 OVC090 20/20 Q1016
SBUR 210500Z 36006KT 2500 -RA BR BKN004 OVC090 20/20 Q1016

Airport on the map: